Home > Products > Valid Products > MTR

000
SAUS45 KLKN 310055
MTRP68
METAR KP68 310053Z AUTO 03013KT 23/M01 A3012 RMK AO1 SLP142
T02281006





000
SAUS45 KLKN 302054
MTRP68
METAR KP68 302053Z AUTO VRB04KT 23/02 A3016 RMK AO1 SLP152 T02280017
58008





000
SAUS45 KLKN 301755
MTRP68
METAR KP68 301753Z AUTO 19/03 A3019 RMK AO1 SLP156 T01940033 10200
20050 58001





000
SAUS45 KLKN 301154
MTRP68
METAR KP68 301153Z AUTO 19008KT 06/02 A3015 RMK AO1 SLP153 T00610017
10139 20056 51010





000
SAUS45 KLKN 300757 COR
MTRP68
METAR KP68 300753Z AUTO 00000KT 09/03 A3012 RMK AO1 SLP139 T00940028
402330050





000
SAUS45 KLKN 300555
MTRP68
METAR KP68 300553Z AUTO 16009KT 14/03 A3011 RMK AO1 SLP124 T01390033
10233 20139 50010





000
SAUS45 KLKN 292355
MTRP68
METAR KP68 292353Z AUTO 35005KT 23/01 A3006 RMK AO1 WSHFT 2313
SLP115 T02280011 10228 20189 56017





000
SAUS45 KLKN 291355
MTRP68
METAR KP68 291353Z AUTO 19003KT 08/04 A3014 RMK AO1 SLP157 T00830044





000
SAUS45 KLKN 291255 COR
MTRP68
METAR KP68 291253Z AUTO 00000KT 06/03 A3014 RMK AO1 SLP155 T00560028





000
SAUS45 KLKN 291255
MTRP68
METAR KP68 291253Z AUTO 00000KT 06/03 A3014 RMK AO1 SLP155 T00560028





000
SAUS45 KLKN 282355 COR
MTRP68
METAR KP68 282353Z AUTO 00000KT 20/00 A3002 RMK AO1 SLP113 60008
T02000000 10217 20139 56014





000
SAUS45 KLKN 282112
MTRP68
SPECI KP68 282111Z AUTO 04010KT 16/07 A3006 RMK AO1 WSHFT 2054
T01610072





000
SAUS45 KLKN 281855
MTRP68
METAR KP68 281853Z AUTO 05006KT 19/02 A3005 RMK AO1 SLP122 T01890022





000
SAUS45 KLKN 281755
MTRP68
METAR KP68 281753Z AUTO VRB03KT 17/03 A3006 RMK AO1 SLP125 T01670028
10172 20022 58004





000
SAUS45 KLKN 281354
MTRP68
METAR KP68 281353Z AUTO 00000KT 09/02 A3007 RMK AO1 SLP124 T00890017





000
SAUS45 KLKN 281155
MTRP68
METAR KP68 281153Z AUTO 19005KT 04/01 A3005 RMK AO1 SLP124 T00390011
10083 20033 53005





000
SAUS45 KLKN 280954
MTRP68
METAR KP68 280953Z AUTO 00000KT 04/00 A3003 RMK AO1 SLP120 T00390000





000
SAUS45 KLKN 280755
MTRP68
METAR KP68 280753Z AUTO VRB05KT 05/01 A3002 RMK AO1 SLP117 T00500006
402110033





000
SAUS45 KLKN 280654
MTRP68
METAR KP68 280653Z AUTO 17008KT 07/01 A3002 RMK AO1 SLP117 T00670006





    US Dept of Commerce
    National Oceanic and Atmospheric Administration
    National Weather Service
    1325 East West Highway
    Silver Spring, MD 20910
    Page Author: NWS Internet Services Team
Disclaimer
Information Quality
Credits
Glossary
Privacy Policy
Freedom of Information Act (FOIA)
About Us
Career Opportunities